createdAt,value
2019-05-12T04:31:56.504Z,2.63
2019-05-12T04:34:25.523Z,3.30
2019-05-12T04:36:55.518Z,2.47
2019-05-12T04:39:25.379Z,2.67
2019-05-12T04:41:55.277Z,2.37
2019-05-12T04:44:25.282Z,2.60
2019-05-12T04:46:55.481Z,2.50
2019-05-12T04:49:25.261Z,2.17
2019-05-12T04:51:54.640Z,2.53
2019-05-12T04:54:24.832Z,2.67
2019-05-12T04:56:55.129Z,2.10
2019-05-12T04:59:25.395Z,2.13
2019-05-12T05:01:54.474Z,4.90
2019-05-12T05:04:24.426Z,3.20
2019-05-12T05:06:55.109Z,2.80
2019-05-12T05:09:24.719Z,1.83
2019-05-12T05:11:54.363Z,1.83
2019-05-12T05:14:24.811Z,2.00
2019-05-12T05:16:54.306Z,2.23
2019-05-12T05:19:24.426Z,2.00
2019-05-12T05:21:54.191Z,3.10
2019-05-12T05:24:23.602Z,2.30
2019-05-12T05:26:53.975Z,3.30
2019-05-12T05:29:24.006Z,2.30
2019-05-12T05:31:53.495Z,3.70
2019-05-12T05:34:23.605Z,2.93
2019-05-12T05:36:57.198Z,2.77
2019-05-12T05:39:24.366Z,2.83
2019-05-12T05:41:53.801Z,2.27
2019-05-12T05:44:24.011Z,2.70
2019-05-12T05:46:54.639Z,3.53
2019-05-12T05:49:23.949Z,3.10
2019-05-12T05:51:56.819Z,4.03
2019-05-12T05:54:31.496Z,2.57
2019-05-12T05:56:59.639Z,2.10
2019-05-12T05:59:31.261Z,3.03
2019-05-12T06:01:55.714Z,2.70
2019-05-12T06:04:24.778Z,2.10
2019-05-12T06:06:56.067Z,2.80
2019-05-12T06:09:24.626Z,2.53
2019-05-12T06:11:54.163Z,2.87
2019-05-12T06:14:23.862Z,2.33
2019-05-12T06:16:53.758Z,2.77
2019-05-12T06:19:25.974Z,4.00
2019-05-12T06:21:53.559Z,2.67
2019-05-12T06:24:23.905Z,3.77
2019-05-12T06:27:00.230Z,3.00
2019-05-12T06:29:25.123Z,3.20
2019-05-12T06:31:54.360Z,2.40
2019-05-12T06:34:23.865Z,2.73
2019-05-12T06:36:56.978Z,2.57
2019-05-12T06:39:24.812Z,2.90
2019-05-12T06:41:56.989Z,3.70
2019-05-12T06:44:24.447Z,2.20
2019-05-12T06:47:02.426Z,2.53
2019-05-12T06:49:24.736Z,2.63
2019-05-12T06:52:01.643Z,4.73
2019-05-12T06:54:24.852Z,2.17
2019-05-12T06:56:57.924Z,3.20
2019-05-12T06:59:24.634Z,2.70
2019-05-12T07:01:56.012Z,2.23
2019-05-12T07:04:24.427Z,2.43
2019-05-12T07:06:56.075Z,2.47
2019-05-12T07:09:28.287Z,2.40
2019-05-12T07:12:02.684Z,1.90
2019-05-12T07:14:27.290Z,2.00
2019-05-12T07:17:02.846Z,2.30
2019-05-12T07:19:33.602Z,2.37
2019-05-12T07:22:03.627Z,2.63
2019-05-12T07:24:34.138Z,2.27
2019-05-12T07:27:09.008Z,4.33
2019-05-12T07:29:34.440Z,2.93
2019-05-12T07:32:08.828Z,2.40
2019-05-12T07:34:34.303Z,3.17
2019-05-12T07:37:04.383Z,2.80
2019-05-12T07:39:37.041Z,5.17
2019-05-12T07:42:06.290Z,2.63
2019-05-12T07:44:40.091Z,2.73
2019-05-12T07:47:07.187Z,5.50
2019-05-12T07:49:38.497Z,3.70
2019-05-12T07:52:06.914Z,5.83
2019-05-12T07:54:39.426Z,3.47
2019-05-12T07:57:11.816Z,3.27
2019-05-12T07:59:40.946Z,3.20
2019-05-12T08:02:08.019Z,3.03
2019-05-12T08:04:39.949Z,3.13
2019-05-12T08:07:07.925Z,3.10
2019-05-12T08:09:36.993Z,3.93
2019-05-12T08:12:09.617Z,5.77
2019-05-12T08:14:36.861Z,3.83
2019-05-12T08:17:11.077Z,6.63
2019-05-12T08:19:36.611Z,4.23
2019-05-12T08:22:05.722Z,11.23
2019-05-12T08:24:42.811Z,18.33
2019-05-12T08:27:06.627Z,42.50
2019-05-12T08:29:35.746Z,56.77
2019-05-12T08:32:09.984Z,62.03
2019-05-12T08:34:35.564Z,74.13
2019-05-12T08:37:04.823Z,46.10
2019-05-12T08:39:33.878Z,24.40
2019-05-12T08:42:04.048Z,11.50
2019-05-12T08:44:40.048Z,11.37
2019-05-12T08:47:04.122Z,5.80
2019-05-12T08:49:49.506Z,5.37
2019-05-12T08:52:04.166Z,5.17
2019-05-12T08:54:39.680Z,5.93
2019-05-12T08:57:08.111Z,9.70
2019-05-12T08:59:37.449Z,5.40
2019-05-12T09:02:10.535Z,5.27
2019-05-12T09:04:43.086Z,5.30
2019-05-12T09:07:09.188Z,5.37
2019-05-12T09:09:39.338Z,5.50
2019-05-12T09:12:08.499Z,4.50
2019-05-12T09:14:41.389Z,4.63
2019-05-12T09:17:08.548Z,5.73
2019-05-12T09:19:37.474Z,5.50
2019-05-12T09:22:16.222Z,11.03
2019-05-12T09:24:37.768Z,6.37
2019-05-12T09:27:08.867Z,6.10
2019-05-12T09:29:37.459Z,5.03
2019-05-12T09:32:09.435Z,5.40
2019-05-12T09:34:37.186Z,14.30
2019-05-12T09:37:06.256Z,7.30
2019-05-12T09:39:42.720Z,5.90
2019-05-12T09:42:06.778Z,6.30
2019-05-12T09:44:35.696Z,6.80
2019-05-12T09:47:07.639Z,9.70
2019-05-12T09:49:39.213Z,6.43
2019-05-12T09:52:06.144Z,6.43
2019-05-12T09:54:40.920Z,6.73
2019-05-12T09:57:06.210Z,5.57
2019-05-12T09:59:36.271Z,7.93
2019-05-12T10:02:10.453Z,6.30
2019-05-12T10:04:37.028Z,6.53
2019-05-12T10:07:06.434Z,12.23
2019-05-12T10:09:35.717Z,8.00
2019-05-12T10:12:05.551Z,6.97
2019-05-12T10:14:34.920Z,9.70
2019-05-12T10:17:04.059Z,8.17
2019-05-12T10:19:34.011Z,9.67
2019-05-12T10:22:03.431Z,9.23
2019-05-12T10:24:40.554Z,9.23
2019-05-12T10:27:03.835Z,7.50
2019-05-12T10:29:32.981Z,9.67
2019-05-12T10:32:04.015Z,7.10
2019-05-12T10:34:35.913Z,8.77
2019-05-12T10:37:04.591Z,8.53
2019-05-12T10:39:33.658Z,12.90
2019-05-12T10:42:03.012Z,12.53
2019-05-12T10:44:37.489Z,6.60
2019-05-12T10:47:04.693Z,11.70
2019-05-12T10:49:33.863Z,9.07
2019-05-12T10:52:03.864Z,10.97
2019-05-12T10:54:34.285Z,13.53
2019-05-12T10:57:04.952Z,11.27
2019-05-12T10:59:41.911Z,11.93
2019-05-12T11:02:05.022Z,14.33
2019-05-12T11:04:38.959Z,13.03
2019-05-12T11:07:05.024Z,16.10
2019-05-12T11:09:34.659Z,24.60
2019-05-12T11:12:03.924Z,10.67
2019-05-12T11:14:34.203Z,12.60
2019-05-12T11:17:07.518Z,14.63
2019-05-12T11:19:40.695Z,11.00
2019-05-12T11:22:06.629Z,15.00
2019-05-12T11:24:35.693Z,8.70
2019-05-12T11:27:04.775Z,12.53
2019-05-12T11:29:45.599Z,13.40
2019-05-12T11:32:04.701Z,10.53
2019-05-12T11:34:33.679Z,10.67
2019-05-12T11:37:03.465Z,15.10
2019-05-12T11:39:36.704Z,13.13
2019-05-12T11:42:04.244Z,11.03
2019-05-12T11:44:33.785Z,15.23
2019-05-12T11:47:03.735Z,13.43
2019-05-12T11:49:33.423Z,12.77
2019-05-12T11:52:07.666Z,12.00
2019-05-12T11:54:33.841Z,10.70
2019-05-12T11:57:03.166Z,12.90
2019-05-12T11:59:34.139Z,20.23
2019-05-12T12:02:03.708Z,11.93
2019-05-12T12:04:47.802Z,11.33
2019-05-12T12:07:17.055Z,13.90
2019-05-12T12:09:49.369Z,11.30
2019-05-12T12:12:16.943Z,12.00
2019-05-12T12:14:50.176Z,10.70
2019-05-12T12:17:16.746Z,13.00
2019-05-12T12:19:46.951Z,16.10
2019-05-12T12:22:20.456Z,14.63
2019-05-12T12:24:46.955Z,13.43
2019-05-12T12:27:15.927Z,15.23
2019-05-12T12:29:44.939Z,15.53
2019-05-12T12:32:18.410Z,15.10
2019-05-12T12:34:44.742Z,14.17
2019-05-12T12:37:18.770Z,13.50
2019-05-12T12:39:44.642Z,10.30
2019-05-12T12:42:14.064Z,12.10
2019-05-12T12:44:43.251Z,15.33
2019-05-12T12:47:13.866Z,19.63
2019-05-12T12:49:45.321Z,14.00
2019-05-12T12:52:13.976Z,21.40
2019-05-12T12:54:43.870Z,22.70
2019-05-12T12:57:13.619Z,13.73
2019-05-12T12:59:51.046Z,12.90
2019-05-12T13:02:14.215Z,23.53
2019-05-12T13:04:46.059Z,11.23
2019-05-12T13:07:14.788Z,24.20
2019-05-12T13:09:44.137Z,21.97
2019-05-12T13:12:15.799Z,42.67
2019-05-12T13:14:44.382Z,17.23
2019-05-12T13:17:14.150Z,14.17
2019-05-12T13:19:43.760Z,12.57
2019-05-12T13:22:17.182Z,18.20
2019-05-12T13:24:44.006Z,7.93
2019-05-12T13:27:14.206Z,12.73
2019-05-12T13:29:43.594Z,9.10
2019-05-12T13:32:13.801Z,13.43
2019-05-12T13:34:43.090Z,12.50
2019-05-12T13:37:17.686Z,17.43
2019-05-12T13:39:55.220Z,8.43
2019-05-12T13:42:14.733Z,8.80
2019-05-12T13:44:43.762Z,24.03
2019-05-12T13:47:14.059Z,9.37
2019-05-12T13:49:47.259Z,15.60
2019-05-12T13:52:14.209Z,10.30
2019-05-12T13:54:43.687Z,13.97
2019-05-12T13:57:13.417Z,8.30
2019-05-12T13:59:43.546Z,8.37
2019-05-12T14:02:14.005Z,8.50
2019-05-12T14:04:44.412Z,14.90
2019-05-12T14:07:17.749Z,7.30
2019-05-12T14:09:44.326Z,8.30
2019-05-12T14:12:13.647Z,10.90
2019-05-12T14:14:43.683Z,6.60
2019-05-12T14:17:14.810Z,9.10
2019-05-12T14:19:46.020Z,7.07
2019-05-12T14:22:21.383Z,6.73
2019-05-12T14:24:46.864Z,10.20
2019-05-12T14:27:19.095Z,9.93
2019-05-12T14:29:46.877Z,8.80
2019-05-12T14:32:17.352Z,8.30
2019-05-12T14:34:50.972Z,10.73
2019-05-12T14:37:17.754Z,15.27
2019-05-12T14:39:50.336Z,7.80
2019-05-12T14:42:17.670Z,9.30
2019-05-12T14:44:49.612Z,13.70
2019-05-12T14:47:19.164Z,11.37
2019-05-12T14:49:48.462Z,8.90
2019-05-12T14:52:17.472Z,12.87
2019-05-12T14:54:46.462Z,13.90
2019-05-12T14:57:15.575Z,9.03
2019-05-12T14:59:44.749Z,12.40
2019-05-12T15:02:13.765Z,14.00
2019-05-12T15:04:43.622Z,12.93
2019-05-12T15:07:12.738Z,15.27
2019-05-12T15:09:41.826Z,11.63
2019-05-12T15:12:10.788Z,16.03
2019-05-12T15:14:40.044Z,15.23
2019-05-12T15:17:13.766Z,12.70
2019-05-12T15:19:39.722Z,11.37
2019-05-12T15:22:11.793Z,12.07
2019-05-12T15:24:39.631Z,12.57
2019-05-12T15:27:08.708Z,16.00
2019-05-12T15:29:37.755Z,11.70
2019-05-12T15:32:06.809Z,10.17
2019-05-12T15:34:35.926Z,14.93
2019-05-12T15:37:05.016Z,10.13
2019-05-12T15:39:34.200Z,13.10
2019-05-12T15:42:03.610Z,14.60
2019-05-12T15:44:36.375Z,15.00
2019-05-12T15:47:03.836Z,14.60
2019-05-12T15:49:33.666Z,10.03
2019-05-12T15:52:03.660Z,11.30
2019-05-12T15:54:35.719Z,7.90
2019-05-12T15:57:04.156Z,10.33
2019-05-12T15:59:34.561Z,9.77
2019-05-12T16:02:12.012Z,13.77
2019-05-12T16:04:42.489Z,9.10
2019-05-12T16:07:05.515Z,14.37
2019-05-12T16:09:34.748Z,10.13
2019-05-12T16:12:09.395Z,10.57
2019-05-12T16:14:36.890Z,15.90
2019-05-12T16:17:06.656Z,10.30
2019-05-12T16:19:35.964Z,11.37
2019-05-12T16:22:05.088Z,18.50
2019-05-12T16:24:34.199Z,12.17
2019-05-12T16:27:03.736Z,15.70
2019-05-12T16:29:33.963Z,12.47
2019-05-12T16:32:04.535Z,13.43
2019-05-12T16:34:36.122Z,16.20
2019-05-12T16:37:04.662Z,14.47
2019-05-12T16:39:37.148Z,12.83
2019-05-12T16:42:08.266Z,9.80
2019-05-12T16:44:35.267Z,12.47
2019-05-12T16:47:04.438Z,13.13
2019-05-12T16:49:34.716Z,9.57
2019-05-12T16:52:04.573Z,14.00
2019-05-12T16:54:33.658Z,9.67
2019-05-12T16:57:06.345Z,9.83
2019-05-12T16:59:34.231Z,8.00
2019-05-12T17:02:05.590Z,9.63
2019-05-12T17:04:34.499Z,10.80
2019-05-12T17:07:03.694Z,9.63
2019-05-12T17:09:33.270Z,10.43
2019-05-12T17:12:04.904Z,16.47
2019-05-12T17:14:36.609Z,13.23
2019-05-12T17:17:04.019Z,12.77
2019-05-12T17:19:34.024Z,19.30
2019-05-12T17:22:04.109Z,11.17
2019-05-12T17:24:34.433Z,13.20
2019-05-12T17:27:03.858Z,20.20
2019-05-12T17:29:33.493Z,16.43
2019-05-12T17:32:04.161Z,18.47
2019-05-12T17:34:33.931Z,18.30
2019-05-12T17:37:04.005Z,16.17
2019-05-12T17:39:35.734Z,20.43
2019-05-12T17:42:03.939Z,21.03
2019-05-12T17:44:36.950Z,11.60
2019-05-12T17:47:03.905Z,18.80
2019-05-12T17:49:33.109Z,11.93
2019-05-12T17:52:12.279Z,13.00
2019-05-12T17:54:34.169Z,16.47
2019-05-12T17:57:03.995Z,18.50
2019-05-12T17:59:33.398Z,17.47
2019-05-12T18:02:05.745Z,19.13
2019-05-12T18:04:37.039Z,16.57
2019-05-12T18:07:12.547Z,15.90
2019-05-12T18:09:35.293Z,16.93
2019-05-12T18:12:04.543Z,17.40
2019-05-12T18:14:44.618Z,10.90
2019-05-12T18:17:08.788Z,21.30
2019-05-12T18:19:35.064Z,12.60
2019-05-12T18:22:09.057Z,12.60
2019-05-12T18:24:35.096Z,18.00
2019-05-12T18:27:07.372Z,18.50
2019-05-12T18:29:35.079Z,24.40
2019-05-12T18:32:05.592Z,16.73
2019-05-12T18:34:35.071Z,16.67
2019-05-12T18:37:05.435Z,18.97
2019-05-12T18:39:34.741Z,17.10
2019-05-12T18:42:03.996Z,16.07
2019-05-12T18:44:33.158Z,19.33
2019-05-12T18:47:04.302Z,18.17
2019-05-12T18:49:34.282Z,22.03
2019-05-12T18:52:03.895Z,25.50
2019-05-12T18:54:34.586Z,19.70
2019-05-12T18:57:07.247Z,18.30
2019-05-12T18:59:34.603Z,25.13
2019-05-12T19:02:03.885Z,20.30
2019-05-12T19:04:34.005Z,22.60
2019-05-12T19:07:03.948Z,19.73
2019-05-12T19:09:33.573Z,19.53
2019-05-12T19:12:02.783Z,30.10
2019-05-12T19:14:37.127Z,24.77
2019-05-12T19:17:03.526Z,29.40
2019-05-12T19:19:32.875Z,29.40
2019-05-12T19:22:09.091Z,24.17
2019-05-12T19:24:36.069Z,21.77
2019-05-12T19:27:04.371Z,20.80
2019-05-12T19:29:38.755Z,26.60
2019-05-12T19:32:04.771Z,17.37
2019-05-12T19:34:37.539Z,26.90
2019-05-12T19:37:06.300Z,24.80
2019-05-12T19:39:35.601Z,21.60
2019-05-12T19:42:04.724Z,21.60
2019-05-12T19:44:35.504Z,29.30
2019-05-12T19:47:05.267Z,25.97
2019-05-12T19:49:46.961Z,21.03
2019-05-12T19:52:06.160Z,23.43
2019-05-12T19:54:36.822Z,24.47
2019-05-12T19:57:06.150Z,27.20
2019-05-12T19:59:35.360Z,23.87
2019-05-12T20:02:04.555Z,22.90
2019-05-12T20:04:37.050Z,20.03
2019-05-12T20:07:04.448Z,21.73
2019-05-12T20:09:33.533Z,24.50
2019-05-12T20:12:08.386Z,20.00
2019-05-12T20:14:34.375Z,23.10
2019-05-12T20:17:03.522Z,22.90
2019-05-12T20:19:34.087Z,25.23
2019-05-12T20:22:03.581Z,25.50
2019-05-12T20:24:32.843Z,24.87
2019-05-12T20:27:03.933Z,20.57
2019-05-12T20:29:33.686Z,19.80
2019-05-12T20:32:04.669Z,22.60
2019-05-12T20:34:47.969Z,23.60
2019-05-12T20:37:12.563Z,23.90
2019-05-12T20:39:35.680Z,25.70
2019-05-12T20:42:05.327Z,22.43
2019-05-12T20:44:34.552Z,20.73
2019-05-12T20:47:06.443Z,21.00
2019-05-12T20:49:34.451Z,23.13
2019-05-12T20:52:07.003Z,24.33
2019-05-12T20:54:34.247Z,18.60
2019-05-12T20:57:07.810Z,20.70
2019-05-12T20:59:34.242Z,20.27
2019-05-12T21:02:03.692Z,18.60
2019-05-12T21:04:37.446Z,22.73
2019-05-12T21:07:04.611Z,21.10
2019-05-12T21:09:34.894Z,20.20
2019-05-12T21:12:04.300Z,20.37
2019-05-12T21:14:33.486Z,25.13
2019-05-12T21:17:03.194Z,19.13
2019-05-12T21:19:37.930Z,14.90
2019-05-12T21:22:04.120Z,20.40
2019-05-12T21:24:35.958Z,21.27
2019-05-12T21:27:03.965Z,21.17
2019-05-12T21:29:33.384Z,17.43
2019-05-12T21:32:11.669Z,18.43
2019-05-12T21:34:34.472Z,23.80
2019-05-12T21:37:04.646Z,21.47
2019-05-12T21:39:34.387Z,23.70
2019-05-12T21:42:03.974Z,24.90
2019-05-12T21:44:33.144Z,23.33
2019-05-12T21:47:07.795Z,26.23
2019-05-12T21:49:33.259Z,22.87
2019-05-12T21:52:05.958Z,21.07
2019-05-12T21:54:37.798Z,30.20
2019-05-12T21:57:04.536Z,21.00
2019-05-12T21:59:37.695Z,28.30
2019-05-12T22:02:04.500Z,21.80
2019-05-12T22:04:41.344Z,28.60
2019-05-12T22:07:07.061Z,26.63
2019-05-12T22:09:41.700Z,27.57
2019-05-12T22:12:05.957Z,27.67
2019-05-12T22:14:36.567Z,25.73
2019-05-12T22:17:07.427Z,26.13
2019-05-12T22:19:38.046Z,23.73
2019-05-12T22:22:07.399Z,22.40
2019-05-12T22:24:38.789Z,25.97
2019-05-12T22:27:07.189Z,22.80
2019-05-12T22:29:36.244Z,22.77
